Santander, Cantabria

latitud = 43° 29' 28''N | longitud = 003° 48' 02''W
52 metros sobre el nivel del mar | datos mensuales

Fecha, hora, temperatura, viento dirección y velocidad, humedad y presión.

  • 25-09-2017 00:00:00 | 18.70°C | Oeste |18.00 km/h | 89.00% | 1014.40 hPa
  • 24-09-2017 23:00:00 | 18.60°C | Noroeste |19.00 km/h | 92.00% | 1014.40 hPa
  • 24-09-2017 22:00:00 | 18.40°C | Oeste |14.00 km/h | 93.00% | 1013.40 hPa
  • 24-09-2017 21:00:00 | 18.40°C | Oeste |5.00 km/h | 92.00% | 1012.10 hPa
  • 24-09-2017 20:00:00 | 19.10°C | Noroeste |2.00 km/h | 90.00% | 1011.40 hPa
  • 24-09-2017 19:00:00 | 19.70°C | Norte |5.00 km/h | 89.00% | 1011.30 hPa
  • 24-09-2017 18:00:00 | 20.00°C | Nordeste |12.00 km/h | 87.00% | 1011.10 hPa
  • 24-09-2017 17:00:00 | 20.90°C | Este |15.00 km/h | 84.00% | 1010.80 hPa
  • 24-09-2017 16:00:00 | 20.50°C | Nordeste |16.00 km/h | 84.00% | 1010.90 hPa
  • 24-09-2017 15:00:00 | 20.90°C | Nordeste |16.00 km/h | 83.00% | 1011.00 hPa
  • 24-09-2017 14:00:00 | 20.20°C | Nordeste |12.00 km/h | 85.00% | 1011.70 hPa
  • 24-09-2017 13:00:00 | 20.40°C | Nordeste |10.00 km/h | 83.00% | 1012.00 hPa
  • 24-09-2017 12:00:00 | 19.90°C | Nordeste |7.00 km/h | 80.00% | 1011.90 hPa
  • 24-09-2017 11:00:00 | 19.40°C | Este |5.00 km/h | 81.00% | 1012.10 hPa
  • 24-09-2017 10:00:00 | 18.40°C | Calma |0.00 km/h | 84.00% | 1012.00 hPa
  • 24-09-2017 09:00:00 | 16.70°C | Sudeste |7.00 km/h | 88.00% | 1011.70 hPa
  • 24-09-2017 08:00:00 | 15.40°C | Sudeste |13.00 km/h | 87.00% | 1011.40 hPa
  • 24-09-2017 07:00:00 | 15.70°C | Sudeste |11.00 km/h | 85.00% | 1011.40 hPa
  • 24-09-2017 06:00:00 | 15.80°C | Sudeste |9.00 km/h | 82.00% | 1011.60 hPa
  • 24-09-2017 05:00:00 | 16.10°C | Sur |9.00 km/h | 84.00% | 1012.00 hPa
  • 24-09-2017 04:00:00 | 16.60°C | Sudeste |6.00 km/h | 85.00% | 1012.20 hPa
  • 24-09-2017 03:00:00 | 17.40°C | Sur |6.00 km/h | 79.00% | 1012.80 hPa
  • 24-09-2017 02:00:00 | 17.80°C | Sudoeste |7.00 km/h | 77.00% | 1013.20 hPa
  • 24-09-2017 01:00:00 | 17.80°C | Sudoeste |9.00 km/h | 83.00% | 1013.30 hPa